Two Dot, Montana
Current Conditions -  °F | °C
As of 2:54 PM on Sunday 23 Nov 2014 (Local Time) from KLWT Reporting Station
Broken Clouds Broken Clouds  
Wind Chill: 32°   Ceiling: 6000
Heat Index: 42°   Visibility: 10mi
Dew Point: 15°   Wind: 25mph
Humidity: 34%   Direction: 290°WNW
Pressure: 29.83"   Gusts: 32mph
Location:  46.4657°N, 110.033°W
Report Text: KLWT 232154Z AUTO 29022G28KT 10SM BKN060 06/M09 A2983 RMK AO2 PK WND 28030/2055 SLP117 T00561094
Loading
Personal Weather Stations






























Interactive Weather Map New forecast layout! Learn more

10-Day Weather Forecast

Advertisements
Track Severe Weather on mobile